Time;durP1;ratioP1;P1;durP2;ratioP2;P2;SDS_P1;SDS_P2;PMS_P1;PMS_P2;Temp;Humidity;BMP_temperature;BMP_pressure;BME280_temperature;BME280_humidity;BME280_pressure;Samples;Min_cycle;Max_cycle;Signal;HPM_P1;HPM_P2
2021/12/21 00:00:47;;;;;;;12.45;5.75;;;;;;;7.79;51.87;101389.94;4992150;28;20049;-80
2021/12/21 00:03:32;;;;;;;9.48;5.93;;;;;;;7.66;54.05;101397.63;4997108;28;20074;-80
2021/12/21 00:06:17;;;;;;;10.85;4.68;;;;;;;7.34;55.62;101402.63;4981559;28;20058;-80
2021/12/21 00:09:02;;;;;;;14.60;6.88;;;;;;;7.08;56.68;101414.59;4971950;28;20053;-80
2021/12/21 00:11:48;;;;;;;18.15;7.25;;;;;;;7.33;57.48;101414.53;4983202;28;20049;-80
2021/12/21 00:17:42;;;;;;;7.22;4.13;;;;;;;7.10;56.89;101412.44;4979310;28;20046;-80
2021/12/21 00:23:29;;;;;;;20.63;9.13;;;;;;;6.94;58.21;101414.38;4976506;28;20164;-80
2021/12/21 00:26:19;;;;;;;16.47;7.90;;;;;;;7.11;59.21;101411.38;4983817;28;20054;-80
2021/12/21 00:29:04;;;;;;;21.83;9.77;;;;;;;7.10;58.99;101404.34;4981563;28;20041;-80
2021/12/21 00:31:49;;;;;;;18.70;8.23;;;;;;;7.21;58.99;101422.16;4979615;28;20065;-80
2021/12/21 00:34:34;;;;;;;15.35;7.82;;;;;;;7.28;58.64;101415.34;4983851;28;20054;-80
2021/12/21 00:37:21;;;;;;;14.45;8.25;;;;;;;7.02;59.27;101411.09;4981534;28;20054;-80
2021/12/21 00:40:07;;;;;;;23.92;10.82;;;;;;;7.28;58.80;101411.84;4979717;28;20534;-79
2021/12/21 00:42:52;;;;;;;23.30;11.15;;;;;;;7.56;57.26;101418.50;4982936;28;20432;-80
2021/12/21 00:45:37;;;;;;;18.33;9.50;;;;;;;7.58;57.66;101417.13;4981623;28;20236;-80
2021/12/21 00:48:27;;;;;;;17.88;8.55;;;;;;;7.60;57.62;101422.25;4979561;28;20139;-79
2021/12/21 00:51:12;;;;;;;18.30;9.90;;;;;;;7.63;57.10;101430.63;4983679;28;20049;-80
2021/12/21 00:53:57;;;;;;;13.63;7.95;;;;;;;7.64;56.98;101424.13;4980970;28;20419;-80
2021/12/21 00:56:42;;;;;;;15.23;8.27;;;;;;;7.67;56.94;101420.84;4979115;28;20550;-80
2021/12/21 00:59:27;;;;;;;14.35;7.32;;;;;;;7.35;58.42;101423.19;4980587;28;20069;-81
2021/12/21 01:02:12;;;;;;;14.90;6.78;;;;;;;7.61;57.77;101429.31;4980972;28;20045;-79
2021/12/21 01:04:58;;;;;;;12.95;7.68;;;;;;;7.74;55.89;101434.09;4978984;28;20057;-80
2021/12/21 01:07:47;;;;;;;13.15;7.47;;;;;;;7.89;55.75;101419.66;4983111;28;20050;-80
2021/12/21 01:10:51;;;;;;;14.75;7.97;;;;;;;7.90;56.48;101429.41;4980734;28;20447;-80
2021/12/21 01:17:03;;;;;;;13.55;7.15;;;;;;;8.04;55.10;101422.28;4984587;28;20066;-80
2021/12/21 01:19:51;;;;;;;13.70;6.10;;;;;;;8.03;54.42;101417.94;4978290;28;20054;-80
2021/12/21 01:25:38;;;;;;;11.25;5.50;;;;;;;8.20;53.95;101421.09;4974338;28;20046;-80
2021/12/21 01:28:38;;;;;;;10.63;5.30;;;;;;;8.21;53.99;101411.88;4966391;28;20542;-80
2021/12/21 01:31:52;;;;;;;15.70;5.38;;;;;;;8.10;54.17;101415.75;4964052;28;20459;-80
2021/12/21 01:37:54;;;;;;;10.95;5.88;;;;;;;7.38;57.98;101419.91;4981640;28;20063;-80
2021/12/21 01:40:51;;;;;;;13.68;5.60;;;;;;;7.57;57.94;101410.09;4982220;28;20054;-80
2021/12/21 01:43:42;;;;;;;16.83;6.63;;;;;;;7.47;58.09;101422.84;4983363;28;20061;-80
2021/12/21 01:49:44;;;;;;;20.65;6.60;;;;;;;7.63;57.93;101429.81;4983500;28;20439;-81
2021/12/21 01:52:29;;;;;;;11.45;6.20;;;;;;;7.58;58.76;101422.53;4979373;28;20042;-80
2021/12/21 01:55:14;;;;;;;10.00;5.13;;;;;;;7.68;58.41;101424.38;4989153;28;20601;-80
2021/12/21 01:57:59;;;;;;;13.52;6.55;;;;;;;7.46;59.18;101424.78;4985370;28;20046;-80
2021/12/21 02:00:44;;;;;;;12.63;6.65;;;;;;;7.29;59.90;101430.50;4983168;28;20053;-80
2021/12/21 02:03:29;;;;;;;13.82;8.07;;;;;;;7.35;60.16;101427.78;4981388;28;20045;-80
2021/12/21 02:06:17;;;;;;;16.85;8.68;;;;;;;7.24;60.39;101435.13;4985742;28;20049;-80
2021/12/21 02:09:01;;;;;;;19.25;10.30;;;;;;;7.02;61.32;101427.31;4983279;28;20053;-80
2021/12/21 02:11:47;;;;;;;17.00;9.77;;;;;;;7.04;62.13;101435.16;4981457;28;20416;-80
2021/12/21 02:14:32;;;;;;;18.45;11.32;;;;;;;7.07;61.68;101440.84;4981078;28;20042;-80
2021/12/21 02:20:19;;;;;;;20.30;12.30;;;;;;;7.01;62.27;101435.72;4975456;28;20050;-80
2021/12/21 02:31:26;;;;;;;25.85;12.93;;;;;;;6.73;63.21;101435.22;4983856;28;20054;-79
2021/12/21 02:34:12;;;;;;;29.38;15.55;;;;;;;6.76;63.22;101433.84;4981694;28;20058;-80
2021/12/21 02:36:57;;;;;;;21.42;12.93;;;;;;;6.71;63.96;101431.97;4986041;28;20069;-80
2021/12/21 02:39:41;;;;;;;20.45;10.68;;;;;;;6.68;63.79;101426.28;4981942;28;20050;-79
2021/12/21 02:42:26;;;;;;;19.38;11.32;;;;;;;6.86;63.48;101423.84;4981364;28;20050;-80
2021/12/21 02:45:11;;;;;;;20.30;11.15;;;;;;;7.13;61.90;101428.13;4979284;28;20518;-80
2021/12/21 02:47:57;;;;;;;20.70;10.73;;;;;;;7.28;61.00;101415.34;4982752;28;20034;-80
2021/12/21 02:50:42;;;;;;;18.20;11.25;;;;;;;7.19;60.72;101421.59;4980852;28;20046;-81
2021/12/21 02:53:26;;;;;;;17.45;9.45;;;;;;;7.38;60.53;101408.28;4979270;28;20046;-80
2021/12/21 02:56:13;;;;;;;18.08;8.65;;;;;;;7.38;60.67;101416.41;4983622;28;20061;-80
2021/12/21 02:58:57;;;;;;;20.58;12.23;;;;;;;7.32;61.33;101415.59;4981836;28;20343;-80
2021/12/21 03:01:42;;;;;;;23.77;13.27;;;;;;;7.24;61.89;101410.78;4979130;28;20042;-80
2021/12/21 03:04:27;;;;;;;16.48;8.70;;;;;;;7.27;61.87;101412.91;4982980;28;20053;-80
2021/12/21 03:07:58;;;;;;;16.77;9.35;;;;;;;7.24;60.68;101413.47;4981549;28;20049;-80
2021/12/21 03:10:29;;;;;;;23.15;12.32;;;;;;;7.48;59.75;101411.75;4979115;28;20435;-79
2021/12/21 03:16:18;;;;;;;20.80;10.82;;;;;;;7.48;60.07;101409.06;4979373;28;20547;-80
2021/12/21 03:19:08;;;;;;;23.30;11.82;;;;;;;7.62;59.29;101407.34;4982289;28;20067;-80
2021/12/21 03:21:55;;;;;;;20.15;10.73;;;;;;;7.54;59.32;101407.94;4980676;28;20053;-80
2021/12/21 03:24:44;;;;;;;19.60;11.13;;;;;;;7.50;59.45;101406.88;4979115;28;20054;-80
2021/12/21 03:27:29;;;;;;;22.95;10.60;;;;;;;7.58;58.83;101410.91;4982696;28;20043;-79
2021/12/21 03:30:15;;;;;;;14.02;7.78;;;;;;;7.46;59.97;101411.25;4979415;28;20045;-80
2021/12/21 03:33:00;;;;;;;19.48;10.77;;;;;;;7.66;58.57;101416.56;4978406;28;20070;-80
2021/12/21 03:35:45;;;;;;;16.80;8.07;;;;;;;7.53;59.28;101411.72;4984101;28;20054;-80
2021/12/21 03:38:30;;;;;;;14.60;8.50;;;;;;;7.58;58.66;101421.72;4980763;28;20045;-80
2021/12/21 03:41:17;;;;;;;25.38;10.40;;;;;;;7.77;57.91;101416.50;4979044;28;20054;-80
2021/12/21 03:44:03;;;;;;;15.15;9.38;;;;;;;7.67;58.71;101415.44;4978039;28;20054;-80
2021/12/21 03:46:54;;;;;;;15.65;9.75;;;;;;;7.68;58.81;101419.78;4984768;28;20045;-80
2021/12/21 03:52:28;;;;;;;17.85;8.10;;;;;;;7.60;60.80;101419.56;4964788;28;20522;-79
2021/12/21 03:55:13;;;;;;;14.45;8.43;;;;;;;7.66;60.08;101415.75;4978701;28;20049;-79
2021/12/21 03:57:58;;;;;;;18.63;6.75;;;;;;;7.72;57.95;101410.00;4976507;28;20054;-79
2021/12/21 04:00:43;;;;;;;17.45;7.50;;;;;;;7.62;58.07;101415.47;4980466;28;20054;-79
2021/12/21 04:03:28;;;;;;;14.35;7.05;;;;;;;7.85;57.88;101416.72;4978221;28;20054;-79
2021/12/21 04:06:13;;;;;;;11.65;6.03;;;;;;;7.70;59.80;101412.19;4976969;28;20050;-79
2021/12/21 04:08:58;;;;;;;12.13;6.10;;;;;;;7.43;60.28;101417.19;4981031;28;20050;-78
2021/12/21 04:11:43;;;;;;;13.43;6.47;;;;;;;7.22;60.80;101423.75;4979178;28;20050;-79
2021/12/21 04:14:29;;;;;;;14.50;7.70;;;;;;;6.98;61.86;101426.25;4976850;28;20235;-79
2021/12/21 04:17:22;;;;;;;18.70;8.93;;;;;;;7.01;62.12;101431.09;4981130;28;20050;-79
2021/12/21 04:20:07;;;;;;;13.80;8.45;;;;;;;7.18;62.44;101426.22;4976536;28;20066;-79
2021/12/21 04:22:53;;;;;;;16.10;8.30;;;;;;;7.24;62.94;101433.22;4976924;28;20046;-79
2021/12/21 04:25:38;;;;;;;11.52;6.75;;;;;;;7.25;61.50;101426.75;4978386;28;20050;-79
2021/12/21 04:28:23;;;;;;;12.73;6.55;;;;;;;7.40;60.49;101423.16;4975534;28;20419;-79
2021/12/21 04:31:10;;;;;;;15.65;6.68;;;;;;;7.41;60.31;101429.38;4970760;28;20050;-79
2021/12/21 04:33:54;;;;;;;19.38;7.32;;;;;;;7.55;59.47;101425.00;4974062;28;20447;-78
2021/12/21 04:36:40;;;;;;;10.70;6.60;;;;;;;7.57;59.66;101422.81;4974008;28;20050;-79
2021/12/21 04:39:35;;;;;;;;;;;;;;;7.60;60.73;101423.09;4967169;28;20050;-79
2021/12/21 04:42:19;;;;;;;14.40;8.20;;;;;;;7.53;61.29;101419.84;4969828;28;19914;-79
2021/12/21 04:45:04;;;;;;;11.45;6.28;;;;;;;7.50;61.84;101430.44;4980423;28;20109;-79
2021/12/21 04:47:49;;;;;;;14.40;7.68;;;;;;;7.61;59.60;101421.19;4979863;28;20042;-78
2021/12/21 04:50:34;;;;;;;13.17;5.83;;;;;;;7.77;58.18;101417.31;4983574;28;20419;-79
2021/12/21 04:53:19;;;;;;;12.40;5.78;;;;;;;7.83;57.96;101420.78;4982204;28;20277;-79
2021/12/21 04:56:04;;;;;;;12.10;6.47;;;;;;;7.77;58.14;101432.75;4980131;28;20241;-79
2021/12/21 04:58:49;;;;;;;10.93;5.72;;;;;;;7.79;58.08;101425.13;4983560;28;20069;-79
2021/12/21 05:01:34;;;;;;;9.05;5.30;;;;;;;7.83;58.28;101428.91;4981604;28;20050;-79
2021/12/21 05:04:19;;;;;;;11.38;5.82;;;;;;;7.69;57.85;101429.53;4980250;28;20049;-79
2021/12/21 05:07:04;;;;;;;9.57;5.10;;;;;;;7.70;58.69;101435.75;4984451;28;20046;-79
2021/12/21 05:09:55;;;;;;;12.93;6.40;;;;;;;7.51;58.84;101437.47;4980780;28;20054;-79
2021/12/21 05:12:40;;;;;;;14.38;7.75;;;;;;;7.38;59.51;101451.56;4980606;28;20111;-78
2021/12/21 05:15:25;;;;;;;18.17;5.82;;;;;;;7.23;59.83;101434.31;4982679;28;20050;-79
2021/12/21 05:18:14;;;;;;;10.65;4.50;;;;;;;7.12;60.41;101448.13;4983159;28;20045;-78
2021/12/21 05:20:58;;;;;;;14.32;6.47;;;;;;;6.99;60.30;101454.09;4967790;28;20065;-78
2021/12/21 05:23:43;;;;;;;12.07;5.32;;;;;;;6.88;61.43;101454.13;4984268;28;20046;-79
2021/12/21 05:26:28;;;;;;;9.07;5.53;;;;;;;6.83;62.03;101456.00;4975423;28;20335;-79
2021/12/21 05:29:13;;;;;;;7.95;5.22;;;;;;;6.88;61.28;101453.31;4979668;28;20412;-79
2021/12/21 05:32:01;;;;;;;10.00;6.35;;;;;;;6.81;61.49;101450.88;4986977;28;20049;-79
2021/12/21 05:34:45;;;;;;;12.70;7.82;;;;;;;6.76;61.09;101453.56;4983960;28;20070;-79
2021/12/21 05:37:30;;;;;;;12.05;5.88;;;;;;;6.77;60.94;101459.81;4976333;28;20065;-79
2021/12/21 05:40:17;;;;;;;10.85;5.43;;;;;;;6.68;61.44;101459.53;4985528;28;20058;-79
2021/12/21 05:43:04;;;;;;;13.35;6.70;;;;;;;6.69;61.06;101466.56;4986032;28;20049;-79
2021/12/21 05:45:48;;;;;;;14.27;8.00;;;;;;;6.68;60.65;101473.06;4993317;28;20053;-79
2021/12/21 05:48:33;;;;;;;11.45;6.55;;;;;;;6.66;61.32;101467.09;4983426;28;20049;-79
2021/12/21 05:51:21;;;;;;;9.60;6.22;;;;;;;6.70;61.63;101468.19;4980256;28;20053;-79
2021/12/21 05:54:07;;;;;;;16.40;8.93;;;;;;;6.58;62.24;101466.84;4979483;28;20416;-79
2021/12/21 05:56:51;;;;;;;14.35;6.40;;;;;;;6.54;62.08;101474.69;4984413;28;20046;-78
2021/12/21 05:59:36;;;;;;;17.80;8.63;;;;;;;6.73;62.07;101475.75;4973918;28;20050;-79
2021/12/21 06:02:21;;;;;;;12.73;6.82;;;;;;;6.67;61.81;101467.91;4982556;28;20663;-78
2021/12/21 06:05:06;;;;;;;10.30;6.65;;;;;;;6.54;61.20;101469.28;4979833;28;20049;-77
2021/12/21 06:07:53;;;;;;;15.02;7.50;;;;;;;6.79;61.90;101474.69;4996486;28;20054;-78
2021/12/21 06:10:41;;;;;;;16.35;7.25;;;;;;;6.78;61.77;101474.94;4962008;28;20054;-79
2021/12/21 06:25:42;;;;;;;20.23;8.35;;;;;;;6.44;62.87;101469.28;4978318;28;20542;-79
2021/12/21 06:28:27;;;;;;;10.93;7.00;;;;;;;6.45;62.53;101471.69;4989323;28;20046;-80
2021/12/21 06:31:14;;;;;;;10.95;6.78;;;;;;;6.48;62.39;101475.75;4976363;28;20053;-80
2021/12/21 06:33:59;;;;;;;14.88;8.48;;;;;;;6.43;63.37;101478.44;4978830;28;20050;-79
2021/12/21 06:36:44;;;;;;;12.98;7.30;;;;;;;6.43;64.34;101481.16;4977849;28;20438;-80
2021/12/21 06:39:32;;;;;;;17.02;7.85;;;;;;;6.48;64.16;101489.25;4977823;28;20439;-80
2021/12/21 06:42:17;;;;;;;19.17;9.13;;;;;;;6.42;63.88;101485.75;4986707;28;20115;-80
2021/12/21 06:45:10;;;;;;;;;;;;;;;6.38;64.10;101491.94;4997050;28;20053;-80
2021/12/21 06:51:45;;;;;;;18.25;10.20;;;;;;;6.39;64.72;101490.88;4958488;28;20051;-80
2021/12/21 06:54:14;;;;;;;18.88;9.85;;;;;;;6.27;64.99;101491.13;4960946;28;20047;-80
2021/12/21 06:56:58;;;;;;;14.18;8.35;;;;;;;6.23;65.32;101492.72;4959217;28;20077;-80
2021/12/21 06:59:44;;;;;;;12.82;7.45;;;;;;;6.20;65.45;101485.16;4989343;28;20057;-79
2021/12/21 07:02:29;;;;;;;16.77;10.38;;;;;;;6.20;65.93;101498.66;5000115;28;20423;-79
2021/12/21 07:05:14;;;;;;;15.38;8.38;;;;;;;6.16;66.21;101489.47;4993021;28;20055;-78
2021/12/21 07:07:59;;;;;;;23.38;12.07;;;;;;;6.15;66.31;101497.81;4981840;28;20046;-79
2021/12/21 07:10:53;;;;;;;17.42;9.15;;;;;;;6.15;66.36;101492.41;4980219;28;20050;-79
2021/12/21 07:19:46;;;;;;;26.20;14.48;;;;;;;6.19;66.59;101507.84;4973313;28;20492;-79
2021/12/21 07:22:30;;;;;;;21.70;12.07;;;;;;;6.14;66.43;101507.84;4979547;28;20038;-79
2021/12/21 07:25:15;;;;;;;19.75;11.02;;;;;;;6.15;66.68;101506.75;4980201;28;20047;-79
2021/12/21 07:28:01;;;;;;;18.27;9.55;;;;;;;6.13;66.61;101510.78;4977766;28;20408;-78
2021/12/21 07:30:47;;;;;;;15.52;10.07;;;;;;;6.14;67.30;101509.72;4981916;28;20057;-79
2021/12/21 07:33:32;;;;;;;22.50;12.52;;;;;;;6.09;66.98;101515.94;4979872;28;20041;-79
2021/12/21 07:36:17;;;;;;;15.95;10.38;;;;;;;6.13;67.18;101517.00;4978423;28;20057;-79
2021/12/21 07:39:06;;;;;;;17.85;10.98;;;;;;;6.14;67.24;101525.94;4980459;28;20042;-80
2021/12/21 07:41:50;;;;;;;20.35;12.52;;;;;;;6.15;67.29;101520.25;4980496;28;20077;-79
2021/12/21 07:44:35;;;;;;;20.67;12.10;;;;;;;6.09;67.55;101525.91;4977949;28;20043;-79
2021/12/21 07:47:20;;;;;;;17.10;9.63;;;;;;;6.11;67.67;101524.56;4982458;28;20527;-79
2021/12/21 07:50:06;;;;;;;21.55;13.93;;;;;;;6.21;67.65;101518.38;4962967;28;20538;-78
2021/12/21 07:52:54;;;;;;;;;;;;;;;6.22;67.52;101526.22;4979065;28;20047;-79
2021/12/21 07:55:38;;;;;;;20.45;12.88;;;;;;;6.10;67.93;101530.22;4981108;28;19914;-79
2021/12/21 07:58:29;;;;;;;19.83;11.68;;;;;;;6.14;67.75;101520.53;4979678;28;20050;-78
2021/12/21 08:01:14;;;;;;;27.13;14.48;;;;;;;6.16;68.17;101531.84;4978564;28;20054;-78
2021/12/21 08:03:59;;;;;;;21.55;12.80;;;;;;;6.19;67.77;101531.34;4981709;28;20049;-79
2021/12/21 08:06:47;;;;;;;27.38;14.40;;;;;;;6.14;67.71;101523.22;4980347;28;20054;-79
2021/12/21 08:09:38;;;;;;;26.27;14.02;;;;;;;6.27;67.99;101528.09;4978376;28;20047;-80
2021/12/21 08:12:23;;;;;;;24.58;13.43;;;;;;;6.37;67.73;101534.34;4981684;28;20054;-79
2021/12/21 08:15:09;;;;;;;18.25;11.05;;;;;;;6.61;67.04;101534.66;4979414;28;20431;-79
2021/12/21 08:17:53;;;;;;;25.02;13.30;;;;;;;6.65;66.93;101533.06;4978897;28;20054;-79
2021/12/21 08:20:39;;;;;;;30.58;14.60;;;;;;;6.73;67.40;101537.91;4981225;28;20067;-79
2021/12/21 08:23:24;;;;;;;19.35;11.45;;;;;;;6.74;66.64;101542.25;4983845;28;20530;-80
2021/12/21 08:26:09;;;;;;;15.77;10.10;;;;;;;6.89;66.24;101541.44;4982345;28;20522;-78
2021/12/21 08:28:54;;;;;;;22.92;10.70;;;;;;;6.98;66.67;101533.59;4984735;28;20038;-79
2021/12/21 08:31:38;;;;;;;29.58;15.23;;;;;;;7.03;65.09;101541.69;4984239;28;20046;-79
2021/12/21 08:34:23;;;;;;;18.00;10.90;;;;;;;7.08;66.04;101545.22;4982446;28;20039;-79
2021/12/21 08:37:08;;;;;;;17.88;9.55;;;;;;;7.17;66.23;101540.88;4980870;28;20051;-80
2021/12/21 08:39:53;;;;;;;24.30;11.15;;;;;;;7.42;64.17;101550.84;4981688;28;20431;-80
2021/12/21 08:42:39;;;;;;;18.88;10.30;;;;;;;7.51;64.21;101561.94;4981596;28;20062;-79
2021/12/21 08:45:24;;;;;;;25.25;12.25;;;;;;;7.20;65.63;101558.47;4980095;28;20046;-80
2021/12/21 08:48:10;;;;;;;28.73;12.45;;;;;;;7.09;66.66;101554.16;4984601;28;20038;-79
2021/12/21 08:50:56;;;;;;;22.83;13.13;;;;;;;7.06;66.66;101557.41;4982397;28;20051;-79
2021/12/21 08:53:42;;;;;;;22.20;11.85;;;;;;;7.20;66.21;101555.75;4980153;28;20050;-79
2021/12/21 08:56:27;;;;;;;24.77;13.45;;;;;;;7.23;65.66;101555.22;4983914;28;20038;-79
2021/12/21 08:59:13;;;;;;;20.02;11.07;;;;;;;7.21;66.62;101560.09;4982294;28;20070;-80
2021/12/21 09:01:58;;;;;;;26.50;13.98;;;;;;;7.14;66.58;101562.25;4980459;28;20065;-79
2021/12/21 09:04:43;;;;;;;19.08;10.60;;;;;;;7.24;66.20;101564.94;4984269;28;20047;-79
2021/12/21 09:07:28;;;;;;;25.73;13.82;;;;;;;7.26;66.54;101573.63;4982630;28;20039;-79
2021/12/21 09:10:15;;;;;;;21.02;11.95;;;;;;;7.34;66.83;101577.66;4981244;28;20047;-79
2021/12/21 09:13:01;;;;;;;23.20;14.90;;;;;;;7.35;66.76;101573.88;4984673;28;20050;-79
2021/12/21 09:15:46;;;;;;;30.38;14.75;;;;;;;7.36;66.70;101575.50;4982563;28;20054;-79
2021/12/21 09:18:31;;;;;;;19.42;9.48;;;;;;;7.39;65.98;101573.06;4980909;28;20055;-80
2021/12/21 09:21:16;;;;;;;17.52;10.02;;;;;;;7.39;65.29;101583.06;4985302;28;20054;-79
2021/12/21 09:24:00;;;;;;;17.20;9.82;;;;;;;7.43;65.30;101576.84;4982652;28;20042;-78
2021/12/21 09:26:45;;;;;;;15.40;9.65;;;;;;;7.52;64.96;101582.50;4980953;28;20053;-80
2021/12/21 09:29:30;;;;;;;15.48;9.20;;;;;;;7.61;65.22;101581.69;4981626;28;20049;-79
2021/12/21 09:32:18;;;;;;;23.58;10.93;;;;;;;7.65;64.86;101587.34;4982461;28;20062;-79
2021/12/21 09:35:03;;;;;;;26.80;15.35;;;;;;;7.72;65.32;101587.84;4980299;28;20050;-79
2021/12/21 09:37:48;;;;;;;18.27;11.45;;;;;;;7.95;64.24;101594.56;4984486;28;20043;-79
2021/12/21 09:40:39;;;;;;;20.10;11.93;;;;;;;7.94;64.53;101588.34;4978839;28;20053;-79
2021/12/21 09:43:23;;;;;;;37.78;16.77;;;;;;;7.90;64.47;101583.75;4979948;28;20050;-80
2021/12/21 09:46:08;;;;;;;22.60;12.48;;;;;;;7.92;64.58;101582.41;4984055;28;20039;-80
2021/12/21 09:48:53;;;;;;;25.33;13.07;;;;;;;8.07;64.95;101581.53;4987183;28;20418;-82
2021/12/21 09:51:38;;;;;;;20.90;13.38;;;;;;;8.00;65.71;101578.31;4982774;28;20043;-80
2021/12/21 09:54:25;;;;;;;24.40;13.70;;;;;;;8.01;66.16;101596.19;4986362;28;20063;-80
2021/12/21 09:57:10;;;;;;;31.42;16.70;;;;;;;8.01;66.18;101588.06;4984624;28;20063;-80
2021/12/21 09:59:55;;;;;;;;;;;;;;;8.08;66.03;101596.69;4982190;28;20054;-80
2021/12/21 10:02:40;;;;;;;31.10;15.85;;;;;;;8.25;65.24;101594.47;4980170;28;19914;-80
2021/12/21 10:05:24;;;;;;;20.50;13.57;;;;;;;8.20;65.08;101601.78;4984492;28;20043;-80
2021/12/21 10:08:13;;;;;;;33.85;16.13;;;;;;;8.26;65.82;101595.28;4981484;28;20057;-79
2021/12/21 10:10:59;;;;;;;25.52;15.57;;;;;;;8.27;65.91;101595.00;4986396;28;20053;-80
2021/12/21 10:13:44;;;;;;;33.67;15.65;;;;;;;8.31;64.32;101592.56;4983121;28;20404;-80
2021/12/21 10:16:29;;;;;;;20.98;13.82;;;;;;;8.36;63.76;101598.78;4980778;28;20046;-81
2021/12/21 10:19:24;;;;;;;18.70;12.30;;;;;;;8.37;62.94;101595.00;4982637;28;20081;-81
2021/12/21 10:22:15;;;;;;;21.35;13.45;;;;;;;8.36;59.81;101593.34;4990436;28;20045;-81
2021/12/21 10:25:00;;;;;;;21.02;11.38;;;;;;;8.38;58.83;101593.09;4982596;28;20050;-81
2021/12/21 10:27:45;;;;;;;16.63;10.75;;;;;;;8.20;60.03;101590.97;4990872;28;20415;-81
2021/12/21 10:30:30;;;;;;;26.30;12.60;;;;;;;8.14;61.11;101587.47;4958404;28;20043;-81
2021/12/21 10:33:14;;;;;;;20.40;9.63;;;;;;;8.15;60.71;101589.91;4962264;28;20521;-81
2021/12/21 10:36:03;;;;;;;18.75;10.43;;;;;;;8.12;61.00;101587.75;4964529;28;20094;-81
2021/12/21 10:38:52;;;;;;;17.63;10.90;;;;;;;8.35;60.07;101580.91;4963388;28;20050;-80
2021/12/21 10:41:43;;;;;;;17.55;11.13;;;;;;;8.37;60.48;101578.72;4963339;28;20042;-80
2021/12/21 10:44:28;;;;;;;21.33;11.73;;;;;;;8.42;59.26;101580.59;4973238;28;20043;-80
2021/12/21 10:47:13;;;;;;;14.73;9.07;;;;;;;8.41;58.84;101576.25;4980794;28;20042;-81
2021/12/21 10:49:58;;;;;;;16.17;9.13;;;;;;;8.47;59.13;101578.66;4969340;28;20050;-80
2021/12/21 10:52:52;;;;;;;14.57;8.30;;;;;;;8.48;58.00;101574.06;4978390;28;20061;-80
2021/12/21 10:55:38;;;;;;;22.13;12.35;;;;;;;8.46;58.27;101568.91;4971177;28;20045;-80
2021/12/21 10:58:27;;;;;;;20.55;11.05;;;;;;;8.51;55.62;101568.88;4969046;28;20046;-81
2021/12/21 11:01:15;;;;;;;19.55;10.93;;;;;;;8.45;56.15;101553.75;4981983;28;20054;-81
2021/12/21 11:04:00;;;;;;;17.65;10.55;;;;;;;8.35;55.61;101552.97;4979865;28;20043;-81
2021/12/21 11:06:49;;;;;;;11.68;6.22;;;;;;;8.56;54.32;101554.50;4978615;28;20058;-80
2021/12/21 11:09:34;;;;;;;18.48;9.60;;;;;;;8.66;53.57;101542.75;4979557;28;20058;-82
2021/12/21 11:12:18;;;;;;;15.65;7.55;;;;;;;8.64;54.48;101544.94;4979981;28;20427;-79
2021/12/21 11:15:03;;;;;;;18.83;9.30;;;;;;;8.77;53.25;101538.88;4966573;28;20062;-80
2021/12/21 11:17:48;;;;;;;12.90;8.05;;;;;;;8.69;54.50;101537.56;4972083;28;20058;-83
2021/12/21 11:20:36;;;;;;;16.00;8.18;;;;;;;8.76;53.74;101545.41;4968887;28;20038;-80
2021/12/21 11:23:24;;;;;;;15.18;9.43;;;;;;;8.69;55.05;101536.75;4974316;28;20057;-81
2021/12/21 11:26:10;;;;;;;18.52;10.65;;;;;;;8.75;55.55;101535.63;4979181;28;20050;-80
2021/12/21 11:28:56;;;;;;;11.10;7.95;;;;;;;8.70;55.78;101532.97;4983431;28;20050;-81
2021/12/21 11:31:47;;;;;;;19.90;9.30;;;;;;;8.65;54.38;101524.88;4978351;28;20415;-80
2021/12/21 11:34:34;;;;;;;13.65;8.85;;;;;;;8.83;53.15;101519.59;4976204;28;20131;-80
2021/12/21 11:37:22;;;;;;;20.35;10.25;;;;;;;8.79;52.56;101521.22;4972113;28;20046;-80
2021/12/21 11:40:09;;;;;;;22.83;9.52;;;;;;;8.70;52.66;101516.69;4968437;28;20375;-79
2021/12/21 11:43:12;;;;;;;16.80;9.50;;;;;;;8.65;52.66;101516.72;4975563;28;20049;-79
2021/12/21 11:46:00;;;;;;;14.57;8.88;;;;;;;8.58;52.47;101512.44;4969206;28;20053;-80
2021/12/21 11:48:52;;;;;;;14.70;8.02;;;;;;;8.62;51.86;101509.19;4974874;28;20046;-80
2021/12/21 11:51:37;;;;;;;17.00;9.80;;;;;;;8.56;52.30;101506.50;4978098;28;20073;-80
2021/12/21 11:54:22;;;;;;;17.25;9.80;;;;;;;8.79;51.32;101506.84;4977219;28;20412;-80
2021/12/21 11:57:07;;;;;;;13.43;6.68;;;;;;;8.73;50.72;101499.88;4975541;28;20117;-80
2021/12/21 11:59:52;;;;;;;15.65;7.13;;;;;;;8.75;51.23;101492.25;4976300;28;20451;-80
2021/12/21 12:02:38;;;;;;;10.30;7.18;;;;;;;8.72;51.25;101493.66;4973014;28;20042;-80
2021/12/21 12:05:28;;;;;;;15.95;8.82;;;;;;;8.71;50.80;101491.22;4967934;28;20049;-80
2021/12/21 12:08:13;;;;;;;17.42;8.65;;;;;;;8.66;50.72;101481.22;4974819;28;20046;-81
2021/12/21 12:11:00;;;;;;;13.38;6.30;;;;;;;8.65;51.03;101487.72;4979471;28;20050;-82
2021/12/21 12:13:44;;;;;;;13.23;7.78;;;;;;;8.79;50.65;101483.25;4972261;28;20050;-82
2021/12/21 12:17:01;;;;;;;11.90;7.30;;;;;;;8.76;50.68;101477.59;4977743;28;20049;-82
2021/12/21 12:20:04;;;;;;;16.95;8.27;;;;;;;8.69;50.04;101479.81;4971972;28;20073;-81
2021/12/21 12:22:49;;;;;;;12.68;7.07;;;;;;;8.66;50.60;101472.28;4979522;28;20057;-81
2021/12/21 12:25:35;;;;;;;11.75;6.32;;;;;;;8.71;50.14;101464.09;4972190;28;20049;-81
2021/12/21 12:28:26;;;;;;;16.30;8.88;;;;;;;8.72;50.86;101471.97;4969156;28;20057;-81
2021/12/21 12:31:34;;;;;;;19.95;9.07;;;;;;;8.74;50.40;101458.91;4976036;28;20415;-81
2021/12/21 12:34:26;;;;;;;20.23;8.55;;;;;;;8.79;50.51;101464.28;4977130;28;20037;-81
2021/12/21 12:37:24;;;;;;;15.77;8.50;;;;;;;8.92;50.69;101470.97;4976986;28;20041;-81
2021/12/21 12:40:10;;;;;;;14.18;8.20;;;;;;;8.97;50.45;101460.06;4966065;28;20073;-81
2021/12/21 12:42:59;;;;;;;15.02;8.90;;;;;;;8.85;50.44;101460.44;4983650;28;20049;-81
2021/12/21 12:45:49;;;;;;;14.32;7.72;;;;;;;8.90;49.97;101463.09;4979548;28;20046;-81
2021/12/21 12:48:49;;;;;;;16.00;9.27;;;;;;;8.82;50.40;101457.50;4984104;28;20046;-81
2021/12/21 12:51:37;;;;;;;18.92;9.60;;;;;;;8.86;50.73;101464.78;4990124;28;20061;-81
2021/12/21 12:54:25;;;;;;;18.08;10.70;;;;;;;9.09;50.70;101459.69;4959743;29;20053;-83
2021/12/21 12:57:24;;;;;;;17.20;10.20;;;;;;;8.96;50.97;101461.97;4957777;29;20104;-82
2021/12/21 13:00:22;;;;;;;17.08;9.68;;;;;;;8.93;51.06;101457.13;4959063;28;20039;-80
2021/12/21 13:03:09;;;;;;;16.92;10.07;;;;;;;8.92;51.52;101447.38;4979136;28;20053;-81
2021/12/21 13:05:55;;;;;;;14.75;8.93;;;;;;;8.94;51.14;101455.19;4981045;28;20062;-81
2021/12/21 13:08:45;;;;;;;23.08;9.10;;;;;;;8.92;50.56;101450.06;4982451;28;20046;-82
2021/12/21 13:11:33;;;;;;;14.48;8.60;;;;;;;8.90;50.68;101448.72;4984177;28;20443;-81
2021/12/21 13:14:18;;;;;;;16.77;8.95;;;;;;;8.85;51.16;101449.59;4994425;28;20053;-81
2021/12/21 13:17:02;;;;;;;11.90;6.55;;;;;;;8.84;51.13;101444.44;4983282;28;20057;-81
2021/12/21 13:28:10;;;;;;;15.48;8.57;;;;;;;9.30;50.91;101439.34;4983598;28;20039;-82
2021/12/21 13:30:57;;;;;;;17.27;9.80;;;;;;;9.04;51.49;101444.25;4986697;28;20058;-81
2021/12/21 13:33:42;;;;;;;16.58;9.75;;;;;;;8.91;52.14;101447.63;4992581;28;20046;-81
2021/12/21 13:36:32;;;;;;;;;;;;;;;8.96;52.17;101444.88;4964404;28;20058;-81
2021/12/21 13:39:27;;;;;;;17.52;9.93;;;;;;;8.90;51.94;101441.41;4961116;28;19918;-81
2021/12/21 13:42:18;;;;;;;16.65;9.63;;;;;;;8.89;52.23;101445.22;4965367;28;20420;-81
2021/12/21 13:45:05;;;;;;;19.65;10.02;;;;;;;8.92;52.41;101449.25;4964009;28;20062;-81
2021/12/21 13:47:50;;;;;;;18.85;9.63;;;;;;;8.98;52.75;101437.28;4953128;28;20058;-81
2021/12/21 13:50:35;;;;;;;13.52;7.88;;;;;;;8.96;53.41;101447.59;4965004;28;20050;-81
2021/12/21 13:53:20;;;;;;;17.08;9.73;;;;;;;8.94;53.24;101445.16;4963117;28;20507;-81
2021/12/21 13:56:15;;;;;;;19.98;9.57;;;;;;;8.91;53.09;101439.50;4967001;28;20062;-81
2021/12/21 13:59:00;;;;;;;12.25;7.40;;;;;;;8.90;53.02;101446.84;4964647;28;20080;-81
2021/12/21 14:01:52;;;;;;;20.10;10.40;;;;;;;8.90;52.61;101440.59;4962512;28;20070;-81